HAJ weather

Hannover Airport
Hannover, Lower Saxony, Germany

Public forecast

Using degrees Celsius for public forecast. Weather courtesy of forecast.io.

METAR (pilot weather report)

Retrieved 2019/03/22 15:50 UTC (10 minutes ago):

EDDV 221550Z 12005KT 080V150 CAVOK 18/09 Q1027 NOSIG

TAF (pilot weather forecast)

Retrieved 2019/03/22 12:26 UTC (4 hours ago):

TAF EDDV 221100Z 2212/2312 15006KT CAVOK BECMG 2302/2304 28006KT TEMPO 2304/2307 2500 BR PROB30 TEMPO 2304/2307 0700 FG OVC001 BECMG 2310/2312 30011KT